sensor_id;sensor_type;location;lat;lon;timestamp;P1;durP1;ratioP1;P2;durP2;ratioP2
47103;SDS011;32853;52.164;5.400;2023-09-12T00:02:17;42.03;;;20.10;;
47103;SDS011;32853;52.164;5.400;2023-09-12T00:04:42;43.08;;;19.17;;
47103;SDS011;32853;52.164;5.400;2023-09-12T00:07:10;39.10;;;19.42;;
47103;SDS011;32853;52.164;5.400;2023-09-12T00:09:39;39.78;;;20.55;;
47103;SDS011;32853;52.164;5.400;2023-09-12T00:12:05;41.58;;;20.10;;
47103;SDS011;32853;52.164;5.400;2023-09-12T00:14:33;40.78;;;21.50;;
47103;SDS011;32853;52.164;5.400;2023-09-12T00:19:51;43.30;;;20.27;;
47103;SDS011;32853;52.164;5.400;2023-09-12T00:22:18;38.20;;;20.60;;
47103;SDS011;32853;52.164;5.400;2023-09-12T00:24:43;40.60;;;21.38;;
47103;SDS011;32853;52.164;5.400;2023-09-12T00:29:39;39.05;;;20.80;;
47103;SDS011;32853;52.164;5.400;2023-09-12T00:32:12;37.10;;;20.30;;
47103;SDS011;32853;52.164;5.400;2023-09-12T00:34:37;39.88;;;21.55;;
47103;SDS011;32853;52.164;5.400;2023-09-12T00:37:10;45.58;;;21.20;;
47103;SDS011;32853;52.164;5.400;2023-09-12T00:39:36;44.28;;;20.83;;
47103;SDS011;32853;52.164;5.400;2023-09-12T00:42:02;39.88;;;18.98;;
47103;SDS011;32853;52.164;5.400;2023-09-12T00:44:39;40.53;;;20.00;;
47103;SDS011;32853;52.164;5.400;2023-09-12T00:47:12;42.05;;;21.20;;
47103;SDS011;32853;52.164;5.400;2023-09-12T00:49:44;37.17;;;20.20;;
47103;SDS011;32853;52.164;5.400;2023-09-12T00:52:11;38.95;;;19.15;;
47103;SDS011;32853;52.164;5.400;2023-09-12T00:54:38;35.78;;;19.42;;
47103;SDS011;32853;52.164;5.400;2023-09-12T00:57:04;37.45;;;18.65;;
47103;SDS011;32853;52.164;5.400;2023-09-12T00:59:47;52.20;;;22.42;;
47103;SDS011;32853;52.164;5.400;2023-09-12T01:02:13;42.75;;;20.88;;
47103;SDS011;32853;52.164;5.400;2023-09-12T01:04:41;36.05;;;19.25;;
47103;SDS011;32853;52.164;5.400;2023-09-12T01:07:08;40.78;;;19.83;;
47103;SDS011;32853;52.164;5.400;2023-09-12T01:09:34;37.33;;;19.25;;
47103;SDS011;32853;52.164;5.400;2023-09-12T01:12:05;41.72;;;19.35;;
47103;SDS011;32853;52.164;5.400;2023-09-12T01:14:30;35.78;;;18.58;;
47103;SDS011;32853;52.164;5.400;2023-09-12T01:16:56;32.78;;;18.33;;
47103;SDS011;32853;52.164;5.400;2023-09-12T01:19:25;39.33;;;20.10;;
47103;SDS011;32853;52.164;5.400;2023-09-12T01:27:48;38.33;;;19.88;;
47103;SDS011;32853;52.164;5.400;2023-09-12T01:30:17;40.75;;;20.48;;
47103;SDS011;32853;52.164;5.400;2023-09-12T01:32:45;44.17;;;20.08;;
47103;SDS011;32853;52.164;5.400;2023-09-12T01:35:13;36.78;;;19.92;;
47103;SDS011;32853;52.164;5.400;2023-09-12T01:37:41;35.90;;;20.92;;
47103;SDS011;32853;52.164;5.400;2023-09-12T01:40:06;37.22;;;19.45;;
47103;SDS011;32853;52.164;5.400;2023-09-12T01:42:40;36.67;;;19.08;;
47103;SDS011;32853;52.164;5.400;2023-09-12T01:45:13;42.67;;;18.90;;
47103;SDS011;32853;52.164;5.400;2023-09-12T01:47:41;33.40;;;18.05;;
47103;SDS011;32853;52.164;5.400;2023-09-12T01:50:08;38.20;;;18.90;;
47103;SDS011;32853;52.164;5.400;2023-09-12T01:52:45;40.20;;;17.95;;
47103;SDS011;32853;52.164;5.400;2023-09-12T01:55:18;38.10;;;21.10;;
47103;SDS011;32853;52.164;5.400;2023-09-12T01:57:53;36.35;;;19.73;;
47103;SDS011;32853;52.164;5.400;2023-09-12T02:00:21;40.28;;;19.58;;
47103;SDS011;32853;52.164;5.400;2023-09-12T02:02:47;33.95;;;19.10;;
47103;SDS011;32853;52.164;5.400;2023-09-12T02:05:17;37.45;;;19.00;;
47103;SDS011;32853;52.164;5.400;2023-09-12T02:07:45;39.90;;;20.33;;
47103;SDS011;32853;52.164;5.400;2023-09-12T02:10:13;36.22;;;17.92;;
47103;SDS011;32853;52.164;5.400;2023-09-12T02:12:40;37.17;;;19.52;;
47103;SDS011;32853;52.164;5.400;2023-09-12T02:15:06;32.00;;;18.65;;
47103;SDS011;32853;52.164;5.400;2023-09-12T02:17:33;43.13;;;21.48;;
47103;SDS011;32853;52.164;5.400;2023-09-12T02:19:59;37.70;;;19.63;;
47103;SDS011;32853;52.164;5.400;2023-09-12T02:22:25;37.20;;;19.48;;
47103;SDS011;32853;52.164;5.400;2023-09-12T02:24:50;39.65;;;19.55;;
47103;SDS011;32853;52.164;5.400;2023-09-12T02:27:31;36.20;;;17.52;;
47103;SDS011;32853;52.164;5.400;2023-09-12T02:29:56;36.38;;;18.60;;
47103;SDS011;32853;52.164;5.400;2023-09-12T02:32:21;36.20;;;18.05;;
47103;SDS011;32853;52.164;5.400;2023-09-12T02:34:58;32.42;;;17.75;;
47103;SDS011;32853;52.164;5.400;2023-09-12T02:37:24;42.42;;;19.80;;
47103;SDS011;32853;52.164;5.400;2023-09-12T02:39:49;36.25;;;19.85;;
47103;SDS011;32853;52.164;5.400;2023-09-12T02:42:16;34.97;;;19.50;;
47103;SDS011;32853;52.164;5.400;2023-09-12T02:44:41;29.67;;;17.33;;
47103;SDS011;32853;52.164;5.400;2023-09-12T02:47:09;34.60;;;19.52;;
47103;SDS011;32853;52.164;5.400;2023-09-12T02:49:35;45.35;;;20.98;;
47103;SDS011;32853;52.164;5.400;2023-09-12T02:52:02;37.75;;;19.27;;
47103;SDS011;32853;52.164;5.400;2023-09-12T02:57:13;34.72;;;18.20;;
47103;SDS011;32853;52.164;5.400;2023-09-12T02:59:39;39.50;;;18.48;;
47103;SDS011;32853;52.164;5.400;2023-09-12T03:02:04;35.75;;;18.70;;
47103;SDS011;32853;52.164;5.400;2023-09-12T03:04:35;40.40;;;20.27;;
47103;SDS011;32853;52.164;5.400;2023-09-12T03:07:01;40.22;;;19.85;;
47103;SDS011;32853;52.164;5.400;2023-09-12T03:09:26;35.60;;;19.13;;
47103;SDS011;32853;52.164;5.400;2023-09-12T03:11:52;39.70;;;19.05;;
47103;SDS011;32853;52.164;5.400;2023-09-12T03:14:17;32.30;;;19.27;;
47103;SDS011;32853;52.164;5.400;2023-09-12T03:16:43;37.30;;;17.95;;
47103;SDS011;32853;52.164;5.400;2023-09-12T03:19:10;36.08;;;18.50;;
47103;SDS011;32853;52.164;5.400;2023-09-12T03:21:35;32.03;;;18.30;;
47103;SDS011;32853;52.164;5.400;2023-09-12T03:24:01;34.95;;;18.75;;
47103;SDS011;32853;52.164;5.400;2023-09-12T03:26:26;41.30;;;20.85;;
47103;SDS011;32853;52.164;5.400;2023-09-12T03:28:55;39.67;;;19.80;;
47103;SDS011;32853;52.164;5.400;2023-09-12T03:31:35;41.45;;;20.00;;
47103;SDS011;32853;52.164;5.400;2023-09-12T03:34:03;40.90;;;19.92;;
47103;SDS011;32853;52.164;5.400;2023-09-12T03:39:28;44.45;;;20.52;;
47103;SDS011;32853;52.164;5.400;2023-09-12T03:41:55;43.67;;;19.92;;
47103;SDS011;32853;52.164;5.400;2023-09-12T03:44:20;40.10;;;20.40;;
47103;SDS011;32853;52.164;5.400;2023-09-12T03:46:46;43.78;;;21.30;;
47103;SDS011;32853;52.164;5.400;2023-09-12T03:49:14;40.50;;;20.67;;
47103;SDS011;32853;52.164;5.400;2023-09-12T03:51:39;38.58;;;18.92;;
47103;SDS011;32853;52.164;5.400;2023-09-12T03:54:05;44.70;;;21.65;;
47103;SDS011;32853;52.164;5.400;2023-09-12T03:56:30;36.97;;;20.15;;
47103;SDS011;32853;52.164;5.400;2023-09-12T03:58:56;43.30;;;20.40;;
47103;SDS011;32853;52.164;5.400;2023-09-12T04:01:25;42.22;;;20.17;;
47103;SDS011;32853;52.164;5.400;2023-09-12T04:03:51;46.00;;;22.45;;
47103;SDS011;32853;52.164;5.400;2023-09-12T04:06:16;44.13;;;21.42;;
47103;SDS011;32853;52.164;5.400;2023-09-12T04:08:41;45.95;;;20.73;;
47103;SDS011;32853;52.164;5.400;2023-09-12T04:11:07;45.67;;;23.40;;
47103;SDS011;32853;52.164;5.400;2023-09-12T04:13:32;47.63;;;22.30;;
47103;SDS011;32853;52.164;5.400;2023-09-12T04:15:57;47.33;;;21.77;;
47103;SDS011;32853;52.164;5.400;2023-09-12T04:18:23;45.33;;;21.73;;
47103;SDS011;32853;52.164;5.400;2023-09-12T04:20:48;45.47;;;19.70;;
47103;SDS011;32853;52.164;5.400;2023-09-12T04:23:13;41.40;;;21.15;;
47103;SDS011;32853;52.164;5.400;2023-09-12T04:25:41;48.00;;;21.55;;
47103;SDS011;32853;52.164;5.400;2023-09-12T04:28:08;49.83;;;20.85;;
47103;SDS011;32853;52.164;5.400;2023-09-12T04:30:44;41.75;;;20.58;;
47103;SDS011;32853;52.164;5.400;2023-09-12T04:33:19;42.80;;;20.02;;
47103;SDS011;32853;52.164;5.400;2023-09-12T04:35:49;41.67;;;19.83;;
47103;SDS011;32853;52.164;5.400;2023-09-12T04:38:15;45.78;;;21.73;;
47103;SDS011;32853;52.164;5.400;2023-09-12T04:40:52;31.63;;;17.63;;
47103;SDS011;32853;52.164;5.400;2023-09-12T04:43:18;42.50;;;20.42;;
47103;SDS011;32853;52.164;5.400;2023-09-12T04:45:56;37.72;;;19.70;;
47103;SDS011;32853;52.164;5.400;2023-09-12T04:48:21;37.22;;;19.45;;
47103;SDS011;32853;52.164;5.400;2023-09-12T04:50:47;36.72;;;19.13;;
47103;SDS011;32853;52.164;5.400;2023-09-12T04:53:15;37.88;;;19.75;;
47103;SDS011;32853;52.164;5.400;2023-09-12T04:55:49;39.65;;;20.75;;
47103;SDS011;32853;52.164;5.400;2023-09-12T04:58:16;43.90;;;20.77;;
47103;SDS011;32853;52.164;5.400;2023-09-12T05:00:42;42.80;;;20.35;;
47103;SDS011;32853;52.164;5.400;2023-09-12T05:03:17;42.22;;;20.52;;
47103;SDS011;32853;52.164;5.400;2023-09-12T05:05:45;41.17;;;21.80;;
47103;SDS011;32853;52.164;5.400;2023-09-12T05:08:11;37.55;;;20.02;;
47103;SDS011;32853;52.164;5.400;2023-09-12T05:10:39;39.80;;;20.35;;
47103;SDS011;32853;52.164;5.400;2023-09-12T05:13:13;41.67;;;20.55;;
47103;SDS011;32853;52.164;5.400;2023-09-12T05:15:40;47.30;;;21.15;;
47103;SDS011;32853;52.164;5.400;2023-09-12T05:18:09;39.55;;;19.88;;
47103;SDS011;32853;52.164;5.400;2023-09-12T05:20:43;42.45;;;20.15;;
47103;SDS011;32853;52.164;5.400;2023-09-12T05:23:12;49.45;;;22.50;;
47103;SDS011;32853;52.164;5.400;2023-09-12T05:25:38;47.55;;;22.00;;
47103;SDS011;32853;52.164;5.400;2023-09-12T05:28:04;45.67;;;22.17;;
47103;SDS011;32853;52.164;5.400;2023-09-12T05:30:29;48.45;;;22.83;;
47103;SDS011;32853;52.164;5.400;2023-09-12T05:35:52;43.15;;;22.35;;
47103;SDS011;32853;52.164;5.400;2023-09-12T05:38:17;47.15;;;22.75;;
47103;SDS011;32853;52.164;5.400;2023-09-12T05:40:43;51.30;;;23.85;;
47103;SDS011;32853;52.164;5.400;2023-09-12T05:43:08;56.63;;;24.70;;
47103;SDS011;32853;52.164;5.400;2023-09-12T05:45:44;47.97;;;22.48;;
47103;SDS011;32853;52.164;5.400;2023-09-12T05:48:27;55.92;;;24.90;;
47103;SDS011;32853;52.164;5.400;2023-09-12T05:50:52;59.13;;;24.83;;
47103;SDS011;32853;52.164;5.400;2023-09-12T05:53:18;55.05;;;23.17;;
47103;SDS011;32853;52.164;5.400;2023-09-12T05:55:43;55.88;;;23.45;;
47103;SDS011;32853;52.164;5.400;2023-09-12T05:58:14;57.90;;;26.25;;
47103;SDS011;32853;52.164;5.400;2023-09-12T06:00:51;51.47;;;24.83;;
47103;SDS011;32853;52.164;5.400;2023-09-12T06:03:31;66.35;;;28.92;;
47103;SDS011;32853;52.164;5.400;2023-09-12T06:05:58;66.05;;;27.13;;
47103;SDS011;32853;52.164;5.400;2023-09-12T06:08:24;52.45;;;25.50;;
47103;SDS011;32853;52.164;5.400;2023-09-12T06:10:49;61.50;;;25.90;;
47103;SDS011;32853;52.164;5.400;2023-09-12T06:13:19;60.30;;;25.25;;
47103;SDS011;32853;52.164;5.400;2023-09-12T06:15:46;55.30;;;24.90;;
47103;SDS011;32853;52.164;5.400;2023-09-12T06:18:12;58.65;;;26.08;;
47103;SDS011;32853;52.164;5.400;2023-09-12T06:23:13;62.83;;;28.08;;
47103;SDS011;32853;52.164;5.400;2023-09-12T06:25:40;57.75;;;27.10;;
47103;SDS011;32853;52.164;5.400;2023-09-12T06:28:05;55.42;;;24.67;;
47103;SDS011;32853;52.164;5.400;2023-09-12T06:35:31;54.00;;;22.92;;
47103;SDS011;32853;52.164;5.400;2023-09-12T06:38:04;52.63;;;23.80;;
47103;SDS011;32853;52.164;5.400;2023-09-12T06:40:30;50.42;;;24.33;;
47103;SDS011;32853;52.164;5.400;2023-09-12T06:42:55;51.97;;;24.02;;
47103;SDS011;32853;52.164;5.400;2023-09-12T06:45:22;58.85;;;27.17;;
47103;SDS011;32853;52.164;5.400;2023-09-12T06:47:47;62.47;;;25.77;;
47103;SDS011;32853;52.164;5.400;2023-09-12T06:50:12;50.33;;;23.83;;
47103;SDS011;32853;52.164;5.400;2023-09-12T06:52:37;55.28;;;25.52;;
47103;SDS011;32853;52.164;5.400;2023-09-12T06:55:03;59.90;;;24.85;;
47103;SDS011;32853;52.164;5.400;2023-09-12T06:57:28;58.05;;;25.67;;
47103;SDS011;32853;52.164;5.400;2023-09-12T06:59:54;55.58;;;25.20;;
47103;SDS011;32853;52.164;5.400;2023-09-12T07:02:19;59.42;;;26.65;;
47103;SDS011;32853;52.164;5.400;2023-09-12T07:04:45;55.17;;;24.75;;
47103;SDS011;32853;52.164;5.400;2023-09-12T07:07:10;56.40;;;24.27;;
47103;SDS011;32853;52.164;5.400;2023-09-12T07:09:42;61.97;;;25.17;;
47103;SDS011;32853;52.164;5.400;2023-09-12T07:12:13;50.53;;;24.77;;
47103;SDS011;32853;52.164;5.400;2023-09-12T07:14:40;47.33;;;22.08;;
47103;SDS011;32853;52.164;5.400;2023-09-12T07:20:00;46.42;;;21.50;;
47103;SDS011;32853;52.164;5.400;2023-09-12T07:25:17;36.20;;;18.52;;
47103;SDS011;32853;52.164;5.400;2023-09-12T07:27:49;46.90;;;18.17;;
47103;SDS011;32853;52.164;5.400;2023-09-12T07:30:15;40.53;;;18.20;;
47103;SDS011;32853;52.164;5.400;2023-09-12T07:32:48;39.63;;;19.60;;
47103;SDS011;32853;52.164;5.400;2023-09-12T07:35:21;41.83;;;19.23;;
47103;SDS011;32853;52.164;5.400;2023-09-12T07:37:49;43.50;;;19.63;;
47103;SDS011;32853;52.164;5.400;2023-09-12T07:40:21;46.92;;;19.98;;
47103;SDS011;32853;52.164;5.400;2023-09-12T07:42:47;54.47;;;19.77;;
47103;SDS011;32853;52.164;5.400;2023-09-12T07:45:21;43.80;;;21.63;;
47103;SDS011;32853;52.164;5.400;2023-09-12T08:04:55;40.38;;;18.77;;
47103;SDS011;32853;52.164;5.400;2023-09-12T08:07:20;47.28;;;19.73;;
47103;SDS011;32853;52.164;5.400;2023-09-12T08:09:58;50.63;;;20.23;;
47103;SDS011;32853;52.164;5.400;2023-09-12T08:12:24;36.95;;;17.45;;
47103;SDS011;32853;52.164;5.400;2023-09-12T08:14:52;38.00;;;17.98;;
47103;SDS011;32853;52.164;5.400;2023-09-12T08:17:18;46.22;;;18.75;;
47103;SDS011;32853;52.164;5.400;2023-09-12T08:19:45;46.50;;;18.92;;
47103;SDS011;32853;52.164;5.400;2023-09-12T08:22:11;45.53;;;19.23;;
47103;SDS011;32853;52.164;5.400;2023-09-12T08:24:40;45.65;;;18.10;;
47103;SDS011;32853;52.164;5.400;2023-09-12T08:27:05;41.38;;;17.50;;
47103;SDS011;32853;52.164;5.400;2023-09-12T08:29:31;43.85;;;17.80;;
47103;SDS011;32853;52.164;5.400;2023-09-12T08:31:58;40.65;;;18.23;;
47103;SDS011;32853;52.164;5.400;2023-09-12T08:34:27;39.38;;;17.65;;
47103;SDS011;32853;52.164;5.400;2023-09-12T08:36:52;42.88;;;19.00;;
47103;SDS011;32853;52.164;5.400;2023-09-12T08:39:27;35.00;;;18.02;;
47103;SDS011;32853;52.164;5.400;2023-09-12T08:44:40;36.83;;;18.25;;
47103;SDS011;32853;52.164;5.400;2023-09-12T08:47:09;34.97;;;16.30;;
47103;SDS011;32853;52.164;5.400;2023-09-12T08:52:14;39.25;;;17.67;;
47103;SDS011;32853;52.164;5.400;2023-09-12T08:54:40;36.08;;;16.80;;
47103;SDS011;32853;52.164;5.400;2023-09-12T08:57:05;35.75;;;15.90;;
47103;SDS011;32853;52.164;5.400;2023-09-12T08:59:45;36.33;;;15.65;;
47103;SDS011;32853;52.164;5.400;2023-09-12T09:04:42;36.72;;;16.63;;
47103;SDS011;32853;52.164;5.400;2023-09-12T09:07:11;39.17;;;16.60;;
47103;SDS011;32853;52.164;5.400;2023-09-12T09:09:46;35.40;;;15.45;;
47103;SDS011;32853;52.164;5.400;2023-09-12T09:12:14;43.80;;;18.88;;
47103;SDS011;32853;52.164;5.400;2023-09-12T09:14:39;37.10;;;15.77;;
47103;SDS011;32853;52.164;5.400;2023-09-12T09:17:12;37.42;;;16.98;;
47103;SDS011;32853;52.164;5.400;2023-09-12T09:19:41;38.33;;;17.67;;
47103;SDS011;32853;52.164;5.400;2023-09-12T09:22:07;31.15;;;15.75;;
47103;SDS011;32853;52.164;5.400;2023-09-12T09:24:32;32.85;;;17.05;;
47103;SDS011;32853;52.164;5.400;2023-09-12T09:27:08;36.75;;;17.60;;
47103;SDS011;32853;52.164;5.400;2023-09-12T09:30:00;35.38;;;17.95;;
47103;SDS011;32853;52.164;5.400;2023-09-12T09:32:26;39.55;;;20.15;;
47103;SDS011;32853;52.164;5.400;2023-09-12T09:34:55;31.60;;;16.73;;
47103;SDS011;32853;52.164;5.400;2023-09-12T09:37:43;36.83;;;17.65;;
47103;SDS011;32853;52.164;5.400;2023-09-12T09:40:09;37.22;;;18.45;;
47103;SDS011;32853;52.164;5.400;2023-09-12T09:42:37;39.22;;;20.23;;
47103;SDS011;32853;52.164;5.400;2023-09-12T09:45:06;35.35;;;19.17;;
47103;SDS011;32853;52.164;5.400;2023-09-12T09:47:32;34.20;;;17.45;;
47103;SDS011;32853;52.164;5.400;2023-09-12T09:49:57;38.53;;;19.90;;
47103;SDS011;32853;52.164;5.400;2023-09-12T09:52:27;39.60;;;20.45;;
47103;SDS011;32853;52.164;5.400;2023-09-12T09:54:56;40.35;;;19.63;;
47103;SDS011;32853;52.164;5.400;2023-09-12T09:57:24;38.83;;;20.95;;
47103;SDS011;32853;52.164;5.400;2023-09-12T10:02:33;33.15;;;17.75;;
47103;SDS011;32853;52.164;5.400;2023-09-12T10:05:00;39.97;;;20.45;;
47103;SDS011;32853;52.164;5.400;2023-09-12T10:07:33;30.95;;;18.17;;
47103;SDS011;32853;52.164;5.400;2023-09-12T10:10:20;39.80;;;18.93;;
47103;SDS011;32853;52.164;5.400;2023-09-12T10:13:08;34.75;;;17.75;;
47103;SDS011;32853;52.164;5.400;2023-09-12T10:15:34;36.15;;;18.52;;
47103;SDS011;32853;52.164;5.400;2023-09-12T10:18:13;40.58;;;17.90;;
47103;SDS011;32853;52.164;5.400;2023-09-12T10:21:10;29.33;;;16.90;;
47103;SDS011;32853;52.164;5.400;2023-09-12T10:23:48;37.92;;;17.33;;
47103;SDS011;32853;52.164;5.400;2023-09-12T10:26:17;39.70;;;18.70;;
47103;SDS011;32853;52.164;5.400;2023-09-12T10:28:44;36.97;;;16.98;;
47103;SDS011;32853;52.164;5.400;2023-09-12T10:31:48;26.83;;;14.82;;
47103;SDS011;32853;52.164;5.400;2023-09-12T10:34:19;30.90;;;14.70;;
47103;SDS011;32853;52.164;5.400;2023-09-12T10:37:36;30.50;;;15.82;;
47103;SDS011;32853;52.164;5.400;2023-09-12T10:40:09;33.03;;;16.85;;
47103;SDS011;32853;52.164;5.400;2023-09-12T10:42:46;29.92;;;15.45;;
47103;SDS011;32853;52.164;5.400;2023-09-12T10:45:14;27.70;;;14.52;;
47103;SDS011;32853;52.164;5.400;2023-09-12T10:47:41;33.50;;;13.05;;
47103;SDS011;32853;52.164;5.400;2023-09-12T10:50:07;29.42;;;15.40;;
47103;SDS011;32853;52.164;5.400;2023-09-12T10:52:33;24.42;;;14.77;;
47103;SDS011;32853;52.164;5.400;2023-09-12T10:58:06;24.58;;;13.13;;
47103;SDS011;32853;52.164;5.400;2023-09-12T11:00:33;29.92;;;13.80;;
47103;SDS011;32853;52.164;5.400;2023-09-12T11:06:19;20.08;;;11.13;;
47103;SDS011;32853;52.164;5.400;2023-09-12T11:11:34;23.77;;;11.68;;
47103;SDS011;32853;52.164;5.400;2023-09-12T11:14:02;22.05;;;11.73;;
47103;SDS011;32853;52.164;5.400;2023-09-12T11:16:34;27.13;;;13.43;;
47103;SDS011;32853;52.164;5.400;2023-09-12T11:21:54;28.35;;;13.55;;
47103;SDS011;32853;52.164;5.400;2023-09-12T11:27:04;23.45;;;11.85;;
47103;SDS011;32853;52.164;5.400;2023-09-12T11:32:24;26.52;;;12.02;;
47103;SDS011;32853;52.164;5.400;2023-09-12T11:34:52;17.25;;;10.40;;
47103;SDS011;32853;52.164;5.400;2023-09-12T11:37:25;27.05;;;11.20;;
47103;SDS011;32853;52.164;5.400;2023-09-12T11:39:56;23.45;;;10.80;;
47103;SDS011;32853;52.164;5.400;2023-09-12T11:42:25;17.77;;;10.00;;
47103;SDS011;32853;52.164;5.400;2023-09-12T11:44:54;20.58;;;10.52;;
47103;SDS011;32853;52.164;5.400;2023-09-12T11:47:21;17.58;;;9.93;;
47103;SDS011;32853;52.164;5.400;2023-09-12T11:49:46;19.08;;;9.50;;
47103;SDS011;32853;52.164;5.400;2023-09-12T11:52:13;26.85;;;10.77;;
47103;SDS011;32853;52.164;5.400;2023-09-12T11:54:44;18.23;;;9.15;;
47103;SDS011;32853;52.164;5.400;2023-09-12T11:57:11;20.15;;;10.43;;
47103;SDS011;32853;52.164;5.400;2023-09-12T12:02:13;14.02;;;8.60;;
47103;SDS011;32853;52.164;5.400;2023-09-12T12:04:41;16.92;;;8.80;;
47103;SDS011;32853;52.164;5.400;2023-09-12T12:07:07;15.20;;;7.32;;
47103;SDS011;32853;52.164;5.400;2023-09-12T12:09:35;12.32;;;7.22;;
47103;SDS011;32853;52.164;5.400;2023-09-12T12:12:11;13.32;;;7.82;;
47103;SDS011;32853;52.164;5.400;2023-09-12T12:14:47;11.55;;;7.35;;
47103;SDS011;32853;52.164;5.400;2023-09-12T12:19:47;9.73;;;6.28;;
47103;SDS011;32853;52.164;5.400;2023-09-12T12:22:27;13.60;;;7.82;;
47103;SDS011;32853;52.164;5.400;2023-09-12T12:24:53;12.32;;;7.30;;
47103;SDS011;32853;52.164;5.400;2023-09-12T12:27:18;16.35;;;8.20;;
47103;SDS011;32853;52.164;5.400;2023-09-12T12:29:50;13.73;;;7.28;;
47103;SDS011;32853;52.164;5.400;2023-09-12T12:32:29;10.75;;;6.57;;
47103;SDS011;32853;52.164;5.400;2023-09-12T12:35:00;15.10;;;8.07;;
47103;SDS011;32853;52.164;5.400;2023-09-12T12:37:30;11.30;;;6.00;;
47103;SDS011;32853;52.164;5.400;2023-09-12T12:40:12;13.07;;;7.80;;
47103;SDS011;32853;52.164;5.400;2023-09-12T12:42:44;12.85;;;6.57;;
47103;SDS011;32853;52.164;5.400;2023-09-12T12:45:21;13.90;;;6.57;;
47103;SDS011;32853;52.164;5.400;2023-09-12T12:47:57;12.85;;;6.70;;
47103;SDS011;32853;52.164;5.400;2023-09-12T12:50:27;10.68;;;6.30;;
47103;SDS011;32853;52.164;5.400;2023-09-12T12:53:06;10.10;;;5.53;;
47103;SDS011;32853;52.164;5.400;2023-09-12T12:55:33;9.60;;;4.13;;
47103;SDS011;32853;52.164;5.400;2023-09-12T12:58:18;5.70;;;3.63;;
47103;SDS011;32853;52.164;5.400;2023-09-12T13:00:53;6.70;;;3.75;;
47103;SDS011;32853;52.164;5.400;2023-09-12T13:03:35;8.77;;;5.30;;
47103;SDS011;32853;52.164;5.400;2023-09-12T13:06:08;7.80;;;4.40;;
47103;SDS011;32853;52.164;5.400;2023-09-12T13:08:44;12.73;;;4.15;;
47103;SDS011;32853;52.164;5.400;2023-09-12T13:11:19;9.88;;;4.22;;
47103;SDS011;32853;52.164;5.400;2023-09-12T13:13:46;7.10;;;4.13;;
47103;SDS011;32853;52.164;5.400;2023-09-12T13:16:20;7.72;;;4.63;;
47103;SDS011;32853;52.164;5.400;2023-09-12T13:18:55;6.63;;;4.10;;
47103;SDS011;32853;52.164;5.400;2023-09-12T13:21:21;11.80;;;6.13;;
47103;SDS011;32853;52.164;5.400;2023-09-12T13:23:51;17.42;;;7.70;;
47103;SDS011;32853;52.164;5.400;2023-09-12T13:26:16;13.98;;;8.25;;
47103;SDS011;32853;52.164;5.400;2023-09-12T13:28:42;13.00;;;5.88;;
47103;SDS011;32853;52.164;5.400;2023-09-12T13:31:07;7.07;;;3.42;;
47103;SDS011;32853;52.164;5.400;2023-09-12T13:33:35;3.97;;;2.50;;
47103;SDS011;32853;52.164;5.400;2023-09-12T13:36:00;7.38;;;2.35;;
47103;SDS011;32853;52.164;5.400;2023-09-12T13:38:26;3.67;;;2.45;;
47103;SDS011;32853;52.164;5.400;2023-09-12T13:40:51;17.67;;;3.20;;
47103;SDS011;32853;52.164;5.400;2023-09-12T13:43:17;5.78;;;2.53;;
47103;SDS011;32853;52.164;5.400;2023-09-12T13:45:43;5.15;;;2.50;;
47103;SDS011;32853;52.164;5.400;2023-09-12T13:48:08;6.18;;;3.22;;
47103;SDS011;32853;52.164;5.400;2023-09-12T13:50:37;7.25;;;3.13;;
47103;SDS011;32853;52.164;5.400;2023-09-12T13:53:03;7.00;;;4.43;;
47103;SDS011;32853;52.164;5.400;2023-09-12T13:55:30;7.72;;;4.38;;
47103;SDS011;32853;52.164;5.400;2023-09-12T13:57:55;14.27;;;5.47;;
47103;SDS011;32853;52.164;5.400;2023-09-12T14:00:33;13.10;;;5.65;;
47103;SDS011;32853;52.164;5.400;2023-09-12T14:03:13;5.93;;;4.07;;
47103;SDS011;32853;52.164;5.400;2023-09-12T14:05:40;7.38;;;4.07;;
47103;SDS011;32853;52.164;5.400;2023-09-12T14:08:09;10.60;;;3.85;;
47103;SDS011;32853;52.164;5.400;2023-09-12T14:10:35;6.30;;;3.83;;
47103;SDS011;32853;52.164;5.400;2023-09-12T14:13:00;8.45;;;4.78;;
47103;SDS011;32853;52.164;5.400;2023-09-12T14:15:34;9.25;;;5.93;;
47103;SDS011;32853;52.164;5.400;2023-09-12T14:18:01;11.30;;;5.63;;
47103;SDS011;32853;52.164;5.400;2023-09-12T14:20:38;9.45;;;5.72;;
47103;SDS011;32853;52.164;5.400;2023-09-12T14:23:11;13.13;;;6.15;;
47103;SDS011;32853;52.164;5.400;2023-09-12T14:25:46;10.43;;;5.85;;
47103;SDS011;32853;52.164;5.400;2023-09-12T14:28:16;10.32;;;5.57;;
47103;SDS011;32853;52.164;5.400;2023-09-12T14:30:41;8.93;;;5.68;;
47103;SDS011;32853;52.164;5.400;2023-09-12T14:33:12;7.53;;;4.82;;
47103;SDS011;32853;52.164;5.400;2023-09-12T14:35:41;10.93;;;4.85;;
47103;SDS011;32853;52.164;5.400;2023-09-12T14:38:07;11.27;;;4.70;;
47103;SDS011;32853;52.164;5.400;2023-09-12T14:40:40;14.35;;;4.38;;
47103;SDS011;32853;52.164;5.400;2023-09-12T14:43:11;8.13;;;4.78;;
47103;SDS011;32853;52.164;5.400;2023-09-12T14:45:36;14.02;;;5.10;;
47103;SDS011;32853;52.164;5.400;2023-09-12T14:48:02;10.88;;;5.15;;
47103;SDS011;32853;52.164;5.400;2023-09-12T14:50:39;9.93;;;5.32;;
47103;SDS011;32853;52.164;5.400;2023-09-12T14:53:07;10.70;;;5.47;;
47103;SDS011;32853;52.164;5.400;2023-09-12T14:58:27;10.70;;;4.13;;
47103;SDS011;32853;52.164;5.400;2023-09-12T15:03:41;6.85;;;4.00;;
47103;SDS011;32853;52.164;5.400;2023-09-12T15:06:11;8.98;;;4.82;;
47103;SDS011;32853;52.164;5.400;2023-09-12T15:08:36;8.43;;;3.75;;
47103;SDS011;32853;52.164;5.400;2023-09-12T15:11:06;9.77;;;4.03;;
47103;SDS011;32853;52.164;5.400;2023-09-12T15:13:32;7.85;;;3.70;;
47103;SDS011;32853;52.164;5.400;2023-09-12T15:16:05;5.90;;;3.17;;
47103;SDS011;32853;52.164;5.400;2023-09-12T15:18:39;5.60;;;2.97;;
47103;SDS011;32853;52.164;5.400;2023-09-12T15:21:17;6.38;;;2.53;;
47103;SDS011;32853;52.164;5.400;2023-09-12T15:23:42;6.10;;;1.95;;
47103;SDS011;32853;52.164;5.400;2023-09-12T15:26:08;4.30;;;2.00;;
47103;SDS011;32853;52.164;5.400;2023-09-12T15:28:33;4.03;;;1.67;;
47103;SDS011;32853;52.164;5.400;2023-09-12T15:30:59;2.90;;;1.80;;
47103;SDS011;32853;52.164;5.400;2023-09-12T15:33:27;4.15;;;2.10;;
47103;SDS011;32853;52.164;5.400;2023-09-12T15:36:01;3.72;;;1.38;;
47103;SDS011;32853;52.164;5.400;2023-09-12T15:38:29;8.68;;;2.17;;
47103;SDS011;32853;52.164;5.400;2023-09-12T15:40:55;4.72;;;2.53;;
47103;SDS011;32853;52.164;5.400;2023-09-12T15:43:23;4.72;;;2.40;;
47103;SDS011;32853;52.164;5.400;2023-09-12T15:45:56;4.60;;;2.75;;
47103;SDS011;32853;52.164;5.400;2023-09-12T15:48:22;4.13;;;2.45;;
47103;SDS011;32853;52.164;5.400;2023-09-12T15:53:19;5.57;;;3.25;;
47103;SDS011;32853;52.164;5.400;2023-09-12T15:55:45;11.05;;;4.85;;
47103;SDS011;32853;52.164;5.400;2023-09-12T15:58:13;10.13;;;3.90;;
47103;SDS011;32853;52.164;5.400;2023-09-12T16:00:39;10.15;;;4.55;;
47103;SDS011;32853;52.164;5.400;2023-09-12T16:03:04;5.40;;;2.90;;
47103;SDS011;32853;52.164;5.400;2023-09-12T16:05:35;5.53;;;3.55;;
47103;SDS011;32853;52.164;5.400;2023-09-12T16:08:00;10.20;;;4.38;;
47103;SDS011;32853;52.164;5.400;2023-09-12T16:10:27;6.15;;;4.22;;